sensor_id;sensor_type;location;lat;lon;timestamp;pressure;altitude;pressure_sealevel;temperature;humidity
79413;BME280;68863;49.528;11.010;2023-07-29T00:00:46;97879.25;;;18.79;77.14
79413;BME280;68863;49.528;11.010;2023-07-29T00:01:47;97885.56;;;18.78;77.27
79413;BME280;68863;49.528;11.010;2023-07-29T00:02:49;97891.41;;;18.74;77.53
79413;BME280;68863;49.528;11.010;2023-07-29T00:03:49;97890.59;;;18.73;77.44
79413;BME280;68863;49.528;11.010;2023-07-29T00:04:50;97883.59;;;18.72;77.26
79413;BME280;68863;49.528;11.010;2023-07-29T00:05:52;97885.75;;;18.69;77.69
79413;BME280;68863;49.528;11.010;2023-07-29T00:06:52;97877.28;;;18.65;77.95
79413;BME280;68863;49.528;11.010;2023-07-29T00:07:53;97876.59;;;18.63;77.88
79413;BME280;68863;49.528;11.010;2023-07-29T00:08:53;97878.63;;;18.61;77.83
79413;BME280;68863;49.528;11.010;2023-07-29T00:09:54;97879.09;;;18.65;77.67
79413;BME280;68863;49.528;11.010;2023-07-29T00:10:54;97879.94;;;18.65;78.00
79413;BME280;68863;49.528;11.010;2023-07-29T00:11:54;97880.28;;;18.62;77.74
79413;BME280;68863;49.528;11.010;2023-07-29T00:12:55;97872.94;;;18.64;78.16
79413;BME280;68863;49.528;11.010;2023-07-29T00:13:55;97873.94;;;18.63;78.17
79413;BME280;68863;49.528;11.010;2023-07-29T00:14:55;97871.97;;;18.57;78.27
79413;BME280;68863;49.528;11.010;2023-07-29T00:15:56;97867.47;;;18.57;78.13
79413;BME280;68863;49.528;11.010;2023-07-29T00:16:56;97870.47;;;18.54;78.04
79413;BME280;68863;49.528;11.010;2023-07-29T00:17:56;97866.66;;;18.57;77.95
79413;BME280;68863;49.528;11.010;2023-07-29T00:18:57;97870.47;;;18.63;77.58
79413;BME280;68863;49.528;11.010;2023-07-29T00:19:57;97863.97;;;18.65;77.60
79413;BME280;68863;49.528;11.010;2023-07-29T00:20:57;97864.97;;;18.56;78.00
79413;BME280;68863;49.528;11.010;2023-07-29T00:21:57;97865.34;;;18.53;78.25
79413;BME280;68863;49.528;11.010;2023-07-29T00:22:58;97861.50;;;18.55;78.14
79413;BME280;68863;49.528;11.010;2023-07-29T00:23:59;97859.66;;;18.56;78.18
79413;BME280;68863;49.528;11.010;2023-07-29T00:25:01;97868.31;;;18.58;77.67
79413;BME280;68863;49.528;11.010;2023-07-29T00:26:01;97854.69;;;18.53;78.42
79413;BME280;68863;49.528;11.010;2023-07-29T00:27:01;97855.84;;;18.58;78.08
79413;BME280;68863;49.528;11.010;2023-07-29T00:28:02;97858.00;;;18.55;78.12
79413;BME280;68863;49.528;11.010;2023-07-29T00:29:02;97856.00;;;18.49;77.90
79413;BME280;68863;49.528;11.010;2023-07-29T00:30:03;97858.03;;;18.47;78.21
79413;BME280;68863;49.528;11.010;2023-07-29T00:31:03;97862.69;;;18.53;77.80
79413;BME280;68863;49.528;11.010;2023-07-29T00:32:04;97861.69;;;18.46;78.57
79413;BME280;68863;49.528;11.010;2023-07-29T00:33:04;97865.81;;;18.48;77.93
79413;BME280;68863;49.528;11.010;2023-07-29T00:34:04;97858.00;;;18.55;77.83
79413;BME280;68863;49.528;11.010;2023-07-29T00:35:05;97862.69;;;18.53;78.12
79413;BME280;68863;49.528;11.010;2023-07-29T00:36:06;97863.66;;;18.52;77.94
79413;BME280;68863;49.528;11.010;2023-07-29T00:37:06;97859.19;;;18.44;78.08
79413;BME280;68863;49.528;11.010;2023-07-29T00:38:06;97863.84;;;18.42;78.33
79413;BME280;68863;49.528;11.010;2023-07-29T00:39:07;97857.72;;;18.42;78.34
79413;BME280;68863;49.528;11.010;2023-07-29T00:40:16;97856.38;;;18.46;77.85
79413;BME280;68863;49.528;11.010;2023-07-29T00:41:19;97857.00;;;18.48;77.93
79413;BME280;68863;49.528;11.010;2023-07-29T00:42:21;97857.19;;;18.46;78.18
79413;BME280;68863;49.528;11.010;2023-07-29T00:43:21;97855.69;;;18.44;78.45
79413;BME280;68863;49.528;11.010;2023-07-29T00:44:22;97858.03;;;18.47;78.54
79413;BME280;68863;49.528;11.010;2023-07-29T00:45:23;97861.34;;;18.41;78.18
79413;BME280;68863;49.528;11.010;2023-07-29T00:46:25;97857.72;;;18.42;78.23
79413;BME280;68863;49.528;11.010;2023-07-29T00:47:27;97858.53;;;18.42;78.41
79413;BME280;68863;49.528;11.010;2023-07-29T00:48:28;97861.84;;;18.44;78.26
79413;BME280;68863;49.528;11.010;2023-07-29T00:49:28;97858.19;;;18.45;78.36
79413;BME280;68863;49.528;11.010;2023-07-29T00:50:31;97853.38;;;18.41;78.18
79413;BME280;68863;49.528;11.010;2023-07-29T00:51:32;97863.34;;;18.39;78.26
79413;BME280;68863;49.528;11.010;2023-07-29T00:52:32;97863.34;;;18.39;78.23
79413;BME280;68863;49.528;11.010;2023-07-29T00:53:33;97866.34;;;18.35;78.34
79413;BME280;68863;49.528;11.010;2023-07-29T00:54:33;97856.88;;;18.41;78.32
79413;BME280;68863;49.528;11.010;2023-07-29T00:55:33;97866.84;;;18.31;78.53
79413;BME280;68863;49.528;11.010;2023-07-29T00:56:34;97866.66;;;18.32;78.70
79413;BME280;68863;49.528;11.010;2023-07-29T00:57:38;97863.50;;;18.37;78.43
79413;BME280;68863;49.528;11.010;2023-07-29T00:58:39;97857.72;;;18.42;78.18
79413;BME280;68863;49.528;11.010;2023-07-29T00:59:40;97861.19;;;18.42;78.34
79413;BME280;68863;49.528;11.010;2023-07-29T01:00:41;97859.34;;;18.43;78.16
79413;BME280;68863;49.528;11.010;2023-07-29T01:01:42;97865.00;;;18.40;78.45
79413;BME280;68863;49.528;11.010;2023-07-29T01:02:43;97858.53;;;18.42;78.38
79413;BME280;68863;49.528;11.010;2023-07-29T01:03:45;97870.81;;;18.43;78.04
79413;BME280;68863;49.528;11.010;2023-07-29T01:04:51;97862.53;;;18.38;78.12
79413;BME280;68863;49.528;11.010;2023-07-29T01:07:19;97863.69;;;18.35;78.57
79413;BME280;68863;49.528;11.010;2023-07-29T01:08:28;97858.69;;;18.32;78.71
79413;BME280;68863;49.528;11.010;2023-07-29T01:09:41;97864.84;;;18.33;78.56
79413;BME280;68863;49.528;11.010;2023-07-29T01:12:23;97869.69;;;18.29;78.83
79413;BME280;68863;49.528;11.010;2023-07-29T01:13:33;97868.69;;;18.30;78.75
79413;BME280;68863;49.528;11.010;2023-07-29T01:14:47;97861.19;;;18.34;78.65
79413;BME280;68863;49.528;11.010;2023-07-29T01:17:23;97861.84;;;18.28;78.32
79413;BME280;68863;49.528;11.010;2023-07-29T01:18:32;97864.00;;;18.32;78.01
79413;BME280;68863;49.528;11.010;2023-07-29T01:20:47;97874.50;;;18.34;77.93
79413;BME280;68863;49.528;11.010;2023-07-29T01:21:49;97871.34;;;18.22;78.24
79413;BME280;68863;49.528;11.010;2023-07-29T01:22:50;97876.97;;;18.27;78.24
79413;BME280;68863;49.528;11.010;2023-07-29T01:23:53;97870.97;;;18.25;78.00
79413;BME280;68863;49.528;11.010;2023-07-29T01:24:53;97866.50;;;18.18;78.41
79413;BME280;68863;49.528;11.010;2023-07-29T01:25:53;97866.69;;;18.24;78.14
79413;BME280;68863;49.528;11.010;2023-07-29T01:26:54;97869.00;;;18.27;78.15
79413;BME280;68863;49.528;11.010;2023-07-29T01:27:55;97865.53;;;18.27;77.89
79413;BME280;68863;49.528;11.010;2023-07-29T01:28:56;97868.19;;;18.27;78.44
79413;BME280;68863;49.528;11.010;2023-07-29T01:29:58;97859.38;;;18.26;77.77
79413;BME280;68863;49.528;11.010;2023-07-29T01:32:12;97863.38;;;18.22;78.20
79413;BME280;68863;49.528;11.010;2023-07-29T01:33:18;97858.69;;;18.24;77.81
79413;BME280;68863;49.528;11.010;2023-07-29T01:34:27;97857.06;;;18.23;77.51
79413;BME280;68863;49.528;11.010;2023-07-29T01:36:02;97861.38;;;18.16;77.97
79413;BME280;68863;49.528;11.010;2023-07-29T01:37:03;97859.22;;;18.11;78.54
79413;BME280;68863;49.528;11.010;2023-07-29T01:38:20;97861.03;;;18.19;77.88
79413;BME280;68863;49.528;11.010;2023-07-29T01:39:24;97855.22;;;18.16;77.86
79413;BME280;68863;49.528;11.010;2023-07-29T01:40:27;97864.03;;;18.16;77.82
79413;BME280;68863;49.528;11.010;2023-07-29T01:41:28;97861.03;;;18.11;78.01
79413;BME280;68863;49.528;11.010;2023-07-29T01:42:29;97867.19;;;18.20;77.70
79413;BME280;68863;49.528;11.010;2023-07-29T01:43:30;97863.69;;;18.11;78.16
79413;BME280;68863;49.528;11.010;2023-07-29T01:44:31;97865.34;;;18.04;78.01
79413;BME280;68863;49.528;11.010;2023-07-29T01:45:32;97865.03;;;18.07;78.22
79413;BME280;68863;49.528;11.010;2023-07-29T01:46:36;97866.03;;;18.14;78.49
79413;BME280;68863;49.528;11.010;2023-07-29T01:47:36;97853.41;;;18.08;78.35
79413;BME280;68863;49.528;11.010;2023-07-29T01:48:40;97865.69;;;18.01;78.32
79413;BME280;68863;49.528;11.010;2023-07-29T01:49:41;97867.50;;;18.00;78.78
79413;BME280;68863;49.528;11.010;2023-07-29T01:50:41;97863.34;;;18.06;78.19
79413;BME280;68863;49.528;11.010;2023-07-29T01:51:41;97867.38;;;18.10;78.02
79413;BME280;68863;49.528;11.010;2023-07-29T01:52:41;97866.69;;;18.08;78.04
79413;BME280;68863;49.528;11.010;2023-07-29T01:53:42;97864.84;;;18.00;78.32
79413;BME280;68863;49.528;11.010;2023-07-29T01:54:42;97859.03;;;18.05;78.10
79413;BME280;68863;49.528;11.010;2023-07-29T01:55:43;97863.03;;;18.09;77.96
79413;BME280;68863;49.528;11.010;2023-07-29T01:56:44;97855.56;;;18.04;78.31
79413;BME280;68863;49.528;11.010;2023-07-29T01:57:45;97863.34;;;18.06;78.09
79413;BME280;68863;49.528;11.010;2023-07-29T01:58:45;97868.66;;;17.98;78.59
79413;BME280;68863;49.528;11.010;2023-07-29T01:59:45;97860.38;;;18.01;78.76
79413;BME280;68863;49.528;11.010;2023-07-29T02:00:46;97865.50;;;17.94;78.57
79413;BME280;68863;49.528;11.010;2023-07-29T02:01:46;97860.88;;;17.88;78.84
79413;BME280;68863;49.528;11.010;2023-07-29T02:02:46;97856.72;;;17.94;78.80
79413;BME280;68863;49.528;11.010;2023-07-29T02:03:47;97854.72;;;17.96;78.68
79413;BME280;68863;49.528;11.010;2023-07-29T02:04:48;97848.41;;;17.97;77.94
79413;BME280;68863;49.528;11.010;2023-07-29T02:05:51;97850.56;;;18.01;77.74
79413;BME280;68863;49.528;11.010;2023-07-29T02:06:51;97852.91;;;18.04;77.61
79413;BME280;68863;49.528;11.010;2023-07-29T02:07:52;97849.09;;;17.91;77.91
79413;BME280;68863;49.528;11.010;2023-07-29T02:08:52;97850.75;;;17.92;77.81
79413;BME280;68863;49.528;11.010;2023-07-29T02:09:53;97844.25;;;17.94;78.25
79413;BME280;68863;49.528;11.010;2023-07-29T02:10:53;97849.25;;;17.97;77.52
79413;BME280;68863;49.528;11.010;2023-07-29T02:11:53;97851.06;;;17.97;78.18
79413;BME280;68863;49.528;11.010;2023-07-29T02:12:54;97850.41;;;17.95;77.90
79413;BME280;68863;49.528;11.010;2023-07-29T02:13:54;97856.56;;;17.95;77.39
79413;BME280;68863;49.528;11.010;2023-07-29T02:14:55;97853.06;;;17.86;77.81
79413;BME280;68863;49.528;11.010;2023-07-29T02:15:55;97855.06;;;17.84;77.69
79413;BME280;68863;49.528;11.010;2023-07-29T02:16:56;97852.72;;;17.90;77.89
79413;BME280;68863;49.528;11.010;2023-07-29T02:17:56;97853.22;;;17.93;77.72
79413;BME280;68863;49.528;11.010;2023-07-29T02:18:56;97848.59;;;17.95;77.63
79413;BME280;68863;49.528;11.010;2023-07-29T02:19:56;97842.44;;;17.86;77.82
79413;BME280;68863;49.528;11.010;2023-07-29T02:20:57;97845.94;;;17.79;78.07
79413;BME280;68863;49.528;11.010;2023-07-29T02:21:57;97846.41;;;17.82;77.90
79413;BME280;68863;49.528;11.010;2023-07-29T02:22:57;97852.38;;;17.76;78.15
79413;BME280;68863;49.528;11.010;2023-07-29T02:23:57;97840.44;;;17.80;78.19
79413;BME280;68863;49.528;11.010;2023-07-29T02:24:58;97838.13;;;17.85;77.58
79413;BME280;68863;49.528;11.010;2023-07-29T02:25:58;97841.94;;;17.83;77.86
79413;BME280;68863;49.528;11.010;2023-07-29T02:26:58;97837.28;;;17.85;77.85
79413;BME280;68863;49.528;11.010;2023-07-29T02:27:58;97838.13;;;17.85;77.61
79413;BME280;68863;49.528;11.010;2023-07-29T02:28:59;97831.47;;;17.81;77.77
79413;BME280;68863;49.528;11.010;2023-07-29T02:29:59;97835.13;;;17.88;77.31
79413;BME280;68863;49.528;11.010;2023-07-29T02:31:16;97833.97;;;17.91;77.51
79413;BME280;68863;49.528;11.010;2023-07-29T02:32:17;97831.16;;;17.93;77.21
79413;BME280;68863;49.528;11.010;2023-07-29T02:33:17;97823.50;;;17.90;77.05
79413;BME280;68863;49.528;11.010;2023-07-29T02:34:17;97820.53;;;17.93;76.95
79413;BME280;68863;49.528;11.010;2023-07-29T02:35:18;97826.00;;;17.83;77.20
79413;BME280;68863;49.528;11.010;2023-07-29T02:36:18;97817.53;;;17.79;77.55
79413;BME280;68863;49.528;11.010;2023-07-29T02:37:18;97819.84;;;17.82;77.49
79413;BME280;68863;49.528;11.010;2023-07-29T02:38:19;97823.00;;;17.78;77.47
79413;BME280;68863;49.528;11.010;2023-07-29T02:39:19;97822.47;;;17.74;77.78
79413;BME280;68863;49.528;11.010;2023-07-29T02:40:19;97825.94;;;17.67;77.96
79413;BME280;68863;49.528;11.010;2023-07-29T02:41:21;97814.00;;;17.71;78.10
79413;BME280;68863;49.528;11.010;2023-07-29T02:42:21;97812.56;;;17.76;77.88
79413;BME280;68863;49.528;11.010;2023-07-29T02:43:21;97815.03;;;17.78;77.55
79413;BME280;68863;49.528;11.010;2023-07-29T02:44:22;97813.38;;;17.77;77.75
79413;BME280;68863;49.528;11.010;2023-07-29T02:45:22;97811.56;;;17.77;77.36
79413;BME280;68863;49.528;11.010;2023-07-29T02:46:22;97804.72;;;17.67;77.62
79413;BME280;68863;49.528;11.010;2023-07-29T02:47:22;97797.25;;;17.70;77.78
79413;BME280;68863;49.528;11.010;2023-07-29T02:48:24;97805.25;;;17.78;77.23
79413;BME280;68863;49.528;11.010;2023-07-29T02:49:25;97802.94;;;17.75;77.19
79413;BME280;68863;49.528;11.010;2023-07-29T02:50:25;97798.13;;;17.79;77.14
79413;BME280;68863;49.528;11.010;2023-07-29T02:51:25;97797.63;;;17.75;77.29
79413;BME280;68863;49.528;11.010;2023-07-29T02:52:26;97797.63;;;17.75;77.68
79413;BME280;68863;49.528;11.010;2023-07-29T02:53:26;97795.09;;;17.74;77.55
79413;BME280;68863;49.528;11.010;2023-07-29T02:54:27;97790.50;;;17.76;76.92
79413;BME280;68863;49.528;11.010;2023-07-29T02:55:27;97785.19;;;17.76;77.06
79413;BME280;68863;49.528;11.010;2023-07-29T02:56:28;97784.31;;;17.67;77.84
79413;BME280;68863;49.528;11.010;2023-07-29T02:57:28;97788.31;;;17.71;77.94
79413;BME280;68863;49.528;11.010;2023-07-29T02:58:28;97790.28;;;17.69;77.74
79413;BME280;68863;49.528;11.010;2023-07-29T02:59:29;97787.63;;;17.69;77.65
79413;BME280;68863;49.528;11.010;2023-07-29T03:00:32;97793.25;;;17.66;77.79
79413;BME280;68863;49.528;11.010;2023-07-29T03:01:33;97796.59;;;17.68;77.66
79413;BME280;68863;49.528;11.010;2023-07-29T03:02:34;97794.25;;;17.65;77.64
79413;BME280;68863;49.528;11.010;2023-07-29T03:03:34;97790.59;;;17.66;77.60
79413;BME280;68863;49.528;11.010;2023-07-29T03:04:34;97799.06;;;17.61;78.09
79413;BME280;68863;49.528;11.010;2023-07-29T03:05:35;97790.78;;;17.64;77.43
79413;BME280;68863;49.528;11.010;2023-07-29T03:06:35;97799.75;;;17.63;77.86
79413;BME280;68863;49.528;11.010;2023-07-29T03:07:36;97781.63;;;17.59;77.32
79413;BME280;68863;49.528;11.010;2023-07-29T03:08:36;97783.31;;;17.60;77.52
79413;BME280;68863;49.528;11.010;2023-07-29T03:09:37;97787.44;;;17.62;77.45
79413;BME280;68863;49.528;11.010;2023-07-29T03:10:37;97787.63;;;17.61;77.54
79413;BME280;68863;49.528;11.010;2023-07-29T03:11:37;97793.94;;;17.60;77.67
79413;BME280;68863;49.528;11.010;2023-07-29T03:12:38;97797.25;;;17.62;77.42
79413;BME280;68863;49.528;11.010;2023-07-29T03:13:38;97803.22;;;17.56;77.23
79413;BME280;68863;49.528;11.010;2023-07-29T03:14:38;97807.34;;;17.58;77.68
79413;BME280;68863;49.528;11.010;2023-07-29T03:15:39;97814.50;;;17.58;77.57
79413;BME280;68863;49.528;11.010;2023-07-29T03:16:39;97817.34;;;17.64;77.69
79413;BME280;68863;49.528;11.010;2023-07-29T03:17:39;97818.47;;;17.62;77.24
79413;BME280;68863;49.528;11.010;2023-07-29T03:18:41;97823.47;;;17.57;77.42
79413;BME280;68863;49.528;11.010;2023-07-29T03:19:41;97826.75;;;17.51;77.95
79413;BME280;68863;49.528;11.010;2023-07-29T03:20:42;97830.41;;;17.50;78.09
79413;BME280;68863;49.528;11.010;2023-07-29T03:21:42;97829.06;;;17.46;78.24
79413;BME280;68863;49.528;11.010;2023-07-29T03:22:43;97826.94;;;17.49;78.07
79413;BME280;68863;49.528;11.010;2023-07-29T03:23:43;97835.41;;;17.53;77.87
79413;BME280;68863;49.528;11.010;2023-07-29T03:24:44;97833.03;;;17.42;78.24
79413;BME280;68863;49.528;11.010;2023-07-29T03:25:48;97836.41;;;17.52;78.54
79413;BME280;68863;49.528;11.010;2023-07-29T03:26:48;97832.25;;;17.57;77.43
79413;BME280;68863;49.528;11.010;2023-07-29T03:27:49;97834.69;;;17.43;78.31
79413;BME280;68863;49.528;11.010;2023-07-29T03:28:49;97824.91;;;17.51;78.03
79413;BME280;68863;49.528;11.010;2023-07-29T03:29:49;97831.06;;;17.44;78.31
79413;BME280;68863;49.528;11.010;2023-07-29T03:30:50;97819.78;;;17.50;78.16
79413;BME280;68863;49.528;11.010;2023-07-29T03:31:50;97827.75;;;17.42;78.87
79413;BME280;68863;49.528;11.010;2023-07-29T03:32:50;97823.28;;;17.50;77.97
79413;BME280;68863;49.528;11.010;2023-07-29T03:33:51;97823.28;;;17.50;78.16
79413;BME280;68863;49.528;11.010;2023-07-29T03:34:51;97822.13;;;17.53;78.56
79413;BME280;68863;49.528;11.010;2023-07-29T03:35:52;97823.47;;;17.57;77.96
79413;BME280;68863;49.528;11.010;2023-07-29T03:36:52;97821.63;;;17.57;78.19
79413;BME280;68863;49.528;11.010;2023-07-29T03:37:53;97822.63;;;17.48;77.99
79413;BME280;68863;49.528;11.010;2023-07-29T03:38:53;97819.47;;;17.45;78.40
79413;BME280;68863;49.528;11.010;2023-07-29T03:39:53;97818.94;;;17.41;78.74
79413;BME280;68863;49.528;11.010;2023-07-29T03:40:54;97814.81;;;17.47;78.23
79413;BME280;68863;49.528;11.010;2023-07-29T03:41:54;97816.13;;;17.51;78.16
79413;BME280;68863;49.528;11.010;2023-07-29T03:42:54;97816.00;;;17.52;78.19
79413;BME280;68863;49.528;11.010;2023-07-29T03:43:55;97813.84;;;17.56;77.75
79413;BME280;68863;49.528;11.010;2023-07-29T03:44:55;97816.16;;;17.59;77.62
79413;BME280;68863;49.528;11.010;2023-07-29T03:45:55;97817.16;;;17.58;77.68
79413;BME280;68863;49.528;11.010;2023-07-29T03:46:56;97808.03;;;17.52;78.16
79413;BME280;68863;49.528;11.010;2023-07-29T03:47:56;97816.31;;;17.57;78.29
79413;BME280;68863;49.528;11.010;2023-07-29T03:48:56;97811.19;;;17.56;77.98
79413;BME280;68863;49.528;11.010;2023-07-29T03:49:57;97817.97;;;17.58;78.33
79413;BME280;68863;49.528;11.010;2023-07-29T03:50:57;97813.84;;;17.56;78.24
79413;BME280;68863;49.528;11.010;2023-07-29T03:51:58;97803.88;;;17.58;78.08
79413;BME280;68863;49.528;11.010;2023-07-29T03:52:58;97806.53;;;17.58;78.24
79413;BME280;68863;49.528;11.010;2023-07-29T03:53:58;97801.41;;;17.56;77.81
79413;BME280;68863;49.528;11.010;2023-07-29T03:54:58;97799.38;;;17.58;78.39
79413;BME280;68863;49.528;11.010;2023-07-29T03:55:59;97797.56;;;17.51;78.65
79413;BME280;68863;49.528;11.010;2023-07-29T03:56:59;97804.88;;;17.57;78.26
79413;BME280;68863;49.528;11.010;2023-07-29T03:58:00;97801.53;;;17.55;78.38
79413;BME280;68863;49.528;11.010;2023-07-29T03:59:06;97798.56;;;17.58;78.52
79413;BME280;68863;49.528;11.010;2023-07-29T04:00:07;97794.25;;;17.57;78.72
79413;BME280;68863;49.528;11.010;2023-07-29T04:01:09;97798.56;;;17.58;78.68
79413;BME280;68863;49.528;11.010;2023-07-29T04:02:09;97792.75;;;17.54;78.66
79413;BME280;68863;49.528;11.010;2023-07-29T04:03:09;97788.28;;;17.55;78.79
79413;BME280;68863;49.528;11.010;2023-07-29T04:04:10;97794.75;;;17.60;79.04
79413;BME280;68863;49.528;11.010;2023-07-29T04:05:10;97786.94;;;17.59;78.89
79413;BME280;68863;49.528;11.010;2023-07-29T04:06:10;97783.31;;;17.60;78.99
79413;BME280;68863;49.528;11.010;2023-07-29T04:07:10;97777.31;;;17.50;79.03
79413;BME280;68863;49.528;11.010;2023-07-29T04:08:11;97780.31;;;17.55;79.01
79413;BME280;68863;49.528;11.010;2023-07-29T04:09:11;97785.78;;;17.61;79.19
79413;BME280;68863;49.528;11.010;2023-07-29T04:10:12;97783.97;;;17.62;79.20
79413;BME280;68863;49.528;11.010;2023-07-29T04:11:12;97791.09;;;17.61;78.94
79413;BME280;68863;49.528;11.010;2023-07-29T04:12:13;97778.34;;;17.57;79.24
79413;BME280;68863;49.528;11.010;2023-07-29T04:13:13;97776.00;;;17.62;79.31
79413;BME280;68863;49.528;11.010;2023-07-29T04:14:13;97777.34;;;17.66;78.85
79413;BME280;68863;49.528;11.010;2023-07-29T04:15:14;97776.50;;;17.66;79.11
79413;BME280;68863;49.528;11.010;2023-07-29T04:16:19;97776.34;;;17.67;79.13
79413;BME280;68863;49.528;11.010;2023-07-29T04:17:19;97780.16;;;17.73;78.97
79413;BME280;68863;49.528;11.010;2023-07-29T04:18:20;97776.19;;;17.69;79.33
79413;BME280;68863;49.528;11.010;2023-07-29T04:19:20;97771.38;;;17.64;79.43
79413;BME280;68863;49.528;11.010;2023-07-29T04:20:20;97775.69;;;17.65;79.41
79413;BME280;68863;49.528;11.010;2023-07-29T04:21:21;97777.00;;;17.61;79.71
79413;BME280;68863;49.528;11.010;2023-07-29T04:22:21;97778.84;;;17.69;79.40
79413;BME280;68863;49.528;11.010;2023-07-29T04:23:21;97775.34;;;17.68;79.35
79413;BME280;68863;49.528;11.010;2023-07-29T04:24:21;97782.63;;;17.66;79.78
79413;BME280;68863;49.528;11.010;2023-07-29T04:25:23;97779.66;;;17.69;79.73
79413;BME280;68863;49.528;11.010;2023-07-29T04:26:23;97777.50;;;17.73;79.67
79413;BME280;68863;49.528;11.010;2023-07-29T04:27:23;97777.00;;;17.69;79.60
79413;BME280;68863;49.528;11.010;2023-07-29T04:28:24;97778.34;;;17.73;79.80
79413;BME280;68863;49.528;11.010;2023-07-29T04:29:24;97775.03;;;17.71;79.74
79413;BME280;68863;49.528;11.010;2023-07-29T04:30:25;97773.72;;;17.75;79.56
79413;BME280;68863;49.528;11.010;2023-07-29T04:31:25;97776.22;;;17.77;79.61
79413;BME280;68863;49.528;11.010;2023-07-29T04:32:25;97783.03;;;17.79;79.72
79413;BME280;68863;49.528;11.010;2023-07-29T04:33:26;97779.97;;;17.74;79.78
79413;BME280;68863;49.528;11.010;2023-07-29T04:34:26;97781.34;;;17.78;80.08
79413;BME280;68863;49.528;11.010;2023-07-29T04:35:26;97783.84;;;17.80;79.65
79413;BME280;68863;49.528;11.010;2023-07-29T04:36:26;97789.66;;;17.83;79.83
79413;BME280;68863;49.528;11.010;2023-07-29T04:37:27;97791.31;;;17.84;79.87
79413;BME280;68863;49.528;11.010;2023-07-29T04:38:31;97791.31;;;17.84;79.96
79413;BME280;68863;49.528;11.010;2023-07-29T04:39:32;97792.13;;;17.85;79.94
79413;BME280;68863;49.528;11.010;2023-07-29T04:40:33;97783.66;;;17.90;80.23
79413;BME280;68863;49.528;11.010;2023-07-29T04:41:33;97779.19;;;17.90;79.98
79413;BME280;68863;49.528;11.010;2023-07-29T04:42:34;97772.06;;;17.91;80.19
79413;BME280;68863;49.528;11.010;2023-07-29T04:43:34;97770.25;;;17.91;80.23
79413;BME280;68863;49.528;11.010;2023-07-29T04:44:34;97776.38;;;17.92;80.19
79413;BME280;68863;49.528;11.010;2023-07-29T04:45:34;97763.09;;;17.92;80.47
79413;BME280;68863;49.528;11.010;2023-07-29T04:46:36;97765.25;;;17.96;80.30
79413;BME280;68863;49.528;11.010;2023-07-29T04:47:36;97760.94;;;17.95;80.58
79413;BME280;68863;49.528;11.010;2023-07-29T04:48:36;97762.91;;;17.93;80.77
79413;BME280;68863;49.528;11.010;2023-07-29T04:49:37;97756.47;;;17.96;80.46
79413;BME280;68863;49.528;11.010;2023-07-29T04:50:37;97766.25;;;17.95;80.86
79413;BME280;68863;49.528;11.010;2023-07-29T04:51:37;97763.41;;;17.97;80.54
79413;BME280;68863;49.528;11.010;2023-07-29T04:52:38;97760.63;;;17.98;80.90
79413;BME280;68863;49.528;11.010;2023-07-29T04:53:38;97768.72;;;17.97;80.61
79413;BME280;68863;49.528;11.010;2023-07-29T04:54:38;97766.75;;;17.99;80.75
79413;BME280;68863;49.528;11.010;2023-07-29T04:55:41;97769.72;;;18.04;80.64
79413;BME280;68863;49.528;11.010;2023-07-29T04:56:42;97768.91;;;18.03;80.80
79413;BME280;68863;49.528;11.010;2023-07-29T04:57:42;97763.59;;;18.03;81.21
79413;BME280;68863;49.528;11.010;2023-07-29T04:58:42;97766.06;;;18.05;81.16
79413;BME280;68863;49.528;11.010;2023-07-29T04:59:43;97766.06;;;18.05;80.67
79413;BME280;68863;49.528;11.010;2023-07-29T05:00:43;97760.59;;;18.06;80.76
79413;BME280;68863;49.528;11.010;2023-07-29T05:01:43;97761.75;;;18.04;81.20
79413;BME280;68863;49.528;11.010;2023-07-29T05:02:43;97755.28;;;18.06;81.05
79413;BME280;68863;49.528;11.010;2023-07-29T05:03:44;97759.75;;;18.06;80.79
79413;BME280;68863;49.528;11.010;2023-07-29T05:04:44;97752.63;;;18.06;80.75
79413;BME280;68863;49.528;11.010;2023-07-29T05:05:44;97756.75;;;18.09;80.81
79413;BME280;68863;49.528;11.010;2023-07-29T05:06:45;97750.47;;;18.10;80.50
79413;BME280;68863;49.528;11.010;2023-07-29T05:07:45;97750.47;;;18.10;80.41
79413;BME280;68863;49.528;11.010;2023-07-29T05:08:45;97749.47;;;18.11;80.63
79413;BME280;68863;49.528;11.010;2023-07-29T05:09:47;97745.16;;;18.10;80.78
79413;BME280;68863;49.528;11.010;2023-07-29T05:10:51;97744.47;;;18.08;80.72
79413;BME280;68863;49.528;11.010;2023-07-29T05:11:52;97751.78;;;18.06;80.54
79413;BME280;68863;49.528;11.010;2023-07-29T05:12:52;97751.78;;;18.06;80.77
79413;BME280;68863;49.528;11.010;2023-07-29T05:13:53;97749.78;;;18.08;80.61
79413;BME280;68863;49.528;11.010;2023-07-29T05:14:53;97747.97;;;18.08;80.69
79413;BME280;68863;49.528;11.010;2023-07-29T05:15:54;97745.31;;;18.08;80.91
79413;BME280;68863;49.528;11.010;2023-07-29T05:16:54;97738.84;;;18.11;80.28
79413;BME280;68863;49.528;11.010;2023-07-29T05:17:54;97741.66;;;18.09;80.40
79413;BME280;68863;49.528;11.010;2023-07-29T05:18:55;97739.66;;;18.11;80.49
79413;BME280;68863;49.528;11.010;2023-07-29T05:19:55;97736.00;;;18.12;80.83
79413;BME280;68863;49.528;11.010;2023-07-29T05:20:55;97740.50;;;18.12;80.69
79413;BME280;68863;49.528;11.010;2023-07-29T05:21:56;97731.50;;;18.13;80.79
79413;BME280;68863;49.528;11.010;2023-07-29T05:22:57;97733.19;;;18.14;80.82
79413;BME280;68863;49.528;11.010;2023-07-29T05:23:57;97748.47;;;18.12;80.76
79413;BME280;68863;49.528;11.010;2023-07-29T05:24:57;97738.00;;;18.10;80.66
79413;BME280;68863;49.528;11.010;2023-07-29T05:25:58;97748.28;;;18.13;80.70
79413;BME280;68863;49.528;11.010;2023-07-29T05:26:58;97749.47;;;18.11;80.65